createdAt,value
2023-04-19T00:00:41.079Z,20.10
2023-04-19T00:03:51.785Z,19.80
2023-04-19T00:06:53.666Z,18.00
2023-04-19T00:09:55.400Z,17.60
2023-04-19T00:12:57.294Z,17.60
2023-04-19T00:15:59.068Z,18.40
2023-04-19T00:19:01.138Z,18.50
2023-04-19T00:22:03.030Z,20.30
2023-04-19T00:25:05.566Z,16.60
2023-04-19T00:28:07.335Z,18.50
2023-04-19T00:31:09.245Z,18.00
2023-04-19T00:34:12.556Z,19.50
2023-04-19T00:37:14.533Z,17.10
2023-04-19T00:40:16.301Z,21.20
2023-04-19T00:43:21.568Z,16.10
2023-04-19T00:46:23.968Z,17.60
2023-04-19T00:49:26.286Z,17.80
2023-04-19T00:52:28.422Z,16.40
2023-04-19T00:55:32.259Z,16.80
2023-04-19T00:58:34.009Z,16.10
2023-04-19T01:01:35.997Z,18.00
2023-04-19T01:04:37.936Z,14.90
2023-04-19T01:07:42.667Z,15.60
2023-04-19T01:10:44.670Z,16.70
2023-04-19T01:13:46.444Z,16.80
2023-04-19T01:16:48.402Z,15.90
2023-04-19T01:19:50.097Z,15.10
2023-04-19T01:22:51.772Z,15.80
2023-04-19T01:25:53.491Z,17.30
2023-04-19T01:28:56.727Z,12.30
2023-04-19T01:31:58.422Z,17.20
2023-04-19T01:35:01.830Z,17.10
2023-04-19T01:38:05.263Z,13.30
2023-04-19T01:44:09.103Z,13.70
2023-04-19T01:47:12.159Z,14.00
2023-04-19T01:50:15.152Z,14.80
2023-04-19T01:53:17.202Z,14.50
2023-04-19T01:56:19.937Z,15.00
2023-04-19T01:59:21.616Z,13.30
2023-04-19T02:02:23.419Z,13.70
2023-04-19T02:05:25.361Z,16.10
2023-04-19T02:08:28.451Z,14.80
2023-04-19T02:11:30.247Z,14.70
2023-04-19T02:14:31.998Z,14.90
2023-04-19T02:17:33.869Z,14.70
2023-04-19T02:20:35.585Z,11.80
2023-04-19T02:23:38.672Z,16.20
2023-04-19T02:26:40.316Z,13.10
2023-04-19T02:29:41.987Z,15.60
2023-04-19T02:32:44.001Z,14.90
2023-04-19T02:35:46.818Z,14.30
2023-04-19T02:38:48.495Z,12.90
2023-04-19T02:41:50.512Z,15.20
2023-04-19T02:44:52.282Z,14.60
2023-04-19T02:47:54.039Z,14.40
2023-04-19T02:50:55.945Z,13.60
2023-04-19T02:53:57.896Z,14.10
2023-04-19T02:57:00.392Z,14.50
2023-04-19T03:00:04.419Z,21.30
2023-04-19T03:03:07.260Z,15.00
2023-04-19T03:06:09.244Z,15.30
2023-04-19T03:09:11.129Z,16.40
2023-04-19T03:12:12.846Z,16.60
2023-04-19T03:15:15.442Z,15.50
2023-04-19T03:18:17.383Z,15.40
2023-04-19T03:21:19.445Z,18.70
2023-04-19T03:24:28.650Z,15.70
2023-04-19T03:27:30.645Z,16.40
2023-04-19T03:30:34.957Z,14.70
2023-04-19T03:33:36.731Z,15.20
2023-04-19T03:36:41.022Z,14.40
2023-04-19T03:39:42.700Z,14.70
2023-04-19T03:42:48.174Z,16.20
2023-04-19T03:46:00.118Z,14.20
2023-04-19T03:49:02.361Z,16.10
2023-04-19T03:55:06.723Z,13.60
2023-04-19T03:58:14.005Z,13.10
2023-04-19T04:01:30.162Z,13.60
2023-04-19T04:04:32.070Z,13.50
2023-04-19T04:07:35.122Z,14.20
2023-04-19T04:10:37.128Z,15.00
2023-04-19T04:13:39.137Z,13.60
2023-04-19T04:16:50.541Z,12.10
2023-04-19T04:19:52.523Z,14.20
2023-04-19T04:22:55.903Z,14.40
2023-04-19T04:26:00.198Z,11.60
2023-04-19T04:29:08.028Z,12.60
2023-04-19T04:32:10.765Z,13.60
2023-04-19T04:35:14.923Z,14.30
2023-04-19T04:38:24.659Z,14.00
2023-04-19T04:41:30.756Z,14.90
2023-04-19T04:44:33.578Z,15.70
2023-04-19T04:47:36.002Z,13.40
2023-04-19T04:50:40.120Z,13.20
2023-04-19T04:56:44.363Z,13.10
2023-04-19T04:59:49.740Z,11.80
2023-04-19T05:02:52.854Z,12.20
2023-04-19T05:05:57.665Z,11.40
2023-04-19T05:08:59.382Z,10.80
2023-04-19T05:12:10.559Z,11.20
2023-04-19T05:15:12.394Z,11.10
2023-04-19T05:18:17.949Z,11.50
2023-04-19T05:21:20.274Z,9.90
2023-04-19T05:24:22.439Z,11.00
2023-04-19T05:27:25.355Z,8.20
2023-04-19T05:30:27.224Z,7.70
2023-04-19T05:33:29.154Z,6.70
2023-04-19T05:39:33.458Z,9.70
2023-04-19T05:42:35.485Z,7.40
2023-04-19T05:45:37.762Z,6.10
2023-04-19T05:48:39.790Z,5.60
2023-04-19T05:52:05.088Z,6.10
2023-04-19T05:55:11.418Z,7.00
2023-04-19T05:58:16.629Z,4.70
2023-04-19T06:01:18.493Z,5.50
2023-04-19T06:04:20.623Z,4.40
2023-04-19T06:07:31.932Z,4.40
2023-04-19T06:10:52.735Z,5.10
2023-04-19T06:13:56.151Z,4.40
2023-04-19T06:16:57.892Z,5.30
2023-04-19T06:20:00.396Z,5.80
2023-04-19T06:26:03.919Z,9.80
2023-04-19T06:29:05.810Z,10.50
2023-04-19T06:32:08.392Z,11.60
2023-04-19T06:35:10.797Z,9.00
2023-04-19T06:38:12.501Z,10.40
2023-04-19T06:41:14.224Z,12.50
2023-04-19T06:44:16.052Z,9.90
2023-04-19T06:47:17.815Z,8.30
2023-04-19T06:50:19.684Z,9.90
2023-04-19T06:53:26.802Z,13.10
2023-04-19T06:56:45.171Z,9.20
2023-04-19T06:59:47.076Z,10.00
2023-04-19T07:02:50.343Z,10.10
2023-04-19T07:05:52.242Z,7.20
2023-04-19T07:08:53.888Z,8.10
2023-04-19T07:11:56.680Z,8.10
2023-04-19T07:14:58.652Z,7.00
2023-04-19T07:18:00.471Z,8.10
2023-04-19T07:21:02.286Z,6.30
2023-04-19T07:24:11.319Z,7.70
2023-04-19T07:27:13.827Z,6.40
2023-04-19T07:30:15.572Z,7.20
2023-04-19T07:33:17.326Z,7.30
2023-04-19T07:36:19.052Z,6.40
2023-04-19T07:39:20.686Z,5.60
2023-04-19T07:42:22.365Z,6.90
2023-04-19T07:45:24.042Z,8.20
2023-04-19T07:48:25.849Z,9.70
2023-04-19T07:51:27.713Z,7.70
2023-04-19T07:54:29.782Z,6.40
2023-04-19T07:57:31.439Z,10.30
2023-04-19T08:00:36.048Z,12.00
2023-04-19T08:03:37.949Z,11.60
2023-04-19T08:06:40.024Z,13.30
2023-04-19T08:09:41.724Z,14.30
2023-04-19T08:12:53.582Z,14.60
2023-04-19T08:16:36.964Z,13.70
2023-04-19T08:19:27.581Z,14.90
2023-04-19T08:22:29.245Z,16.30
2023-04-19T08:25:31.290Z,13.50
2023-04-19T08:28:33.046Z,15.40
2023-04-19T08:31:34.741Z,17.40
2023-04-19T08:34:37.685Z,22.80
2023-04-19T08:37:39.462Z,20.70
2023-04-19T08:40:46.940Z,16.70
2023-04-19T08:43:51.323Z,17.70
2023-04-19T08:46:53.294Z,15.10
2023-04-19T08:50:08.722Z,18.10
2023-04-19T08:53:25.097Z,17.20
2023-04-19T08:56:35.414Z,18.80
2023-04-19T08:59:38.415Z,17.40
2023-04-19T09:02:51.295Z,16.70
2023-04-19T09:05:54.346Z,17.30
2023-04-19T09:12:22.448Z,14.50
2023-04-19T09:15:35.779Z,18.10
2023-04-19T09:19:02.614Z,17.30
2023-04-19T09:25:43.791Z,13.30
2023-04-19T09:28:56.702Z,9.60
2023-04-19T09:31:59.265Z,16.50
2023-04-19T09:35:01.057Z,15.90
2023-04-19T09:38:06.941Z,18.60
2023-04-19T09:41:09.924Z,15.20
2023-04-19T09:47:29.333Z,13.70
2023-04-19T09:50:31.873Z,14.90
2023-04-19T09:53:33.991Z,16.10
2023-04-19T09:56:36.987Z,14.60
2023-04-19T09:59:38.741Z,15.90
2023-04-19T10:02:41.649Z,15.30
2023-04-19T10:05:45.113Z,13.70
2023-04-19T10:08:49.603Z,13.30
2023-04-19T10:11:56.584Z,15.20
2023-04-19T10:15:06.869Z,14.50
2023-04-19T10:18:09.406Z,14.60
2023-04-19T10:21:12.334Z,17.70
2023-04-19T10:24:17.816Z,18.90
2023-04-19T10:27:25.164Z,22.50
2023-04-19T10:30:27.325Z,18.20
2023-04-19T10:33:34.247Z,17.90
2023-04-19T10:36:37.511Z,21.20
2023-04-19T10:39:40.915Z,24.50
2023-04-19T10:43:10.686Z,22.60
2023-04-19T10:46:15.123Z,19.10
2023-04-19T10:49:31.344Z,35.80
2023-04-19T10:52:34.295Z,21.10
2023-04-19T10:55:50.612Z,24.70
2023-04-19T10:59:01.042Z,32.60
2023-04-19T11:02:24.200Z,25.90
2023-04-19T11:05:27.501Z,23.20
2023-04-19T11:08:29.218Z,23.40
2023-04-19T11:11:37.330Z,19.80
2023-04-19T11:14:44.334Z,23.00
2023-04-19T11:17:57.921Z,21.20
2023-04-19T11:21:06.713Z,22.70
2023-04-19T11:24:09.460Z,21.40
2023-04-19T11:27:11.096Z,24.10
2023-04-19T11:30:21.813Z,21.10
2023-04-19T11:33:29.568Z,24.70
2023-04-19T11:36:36.335Z,27.90
2023-04-19T11:39:55.795Z,31.30
2023-04-19T11:43:00.035Z,25.30
2023-04-19T11:46:06.560Z,26.20
2023-04-19T11:49:08.476Z,25.20
2023-04-19T11:52:10.239Z,28.80
2023-04-19T11:55:18.460Z,29.40
2023-04-19T11:58:32.448Z,32.90
2023-04-19T12:01:34.112Z,24.70
2023-04-19T12:04:36.674Z,24.80
2023-04-19T12:07:58.596Z,25.40
2023-04-19T12:11:00.686Z,62.50
2023-04-19T12:14:12.896Z,67.10
2023-04-19T12:17:15.239Z,35.30
2023-04-19T12:23:31.427Z,33.50
2023-04-19T12:26:33.583Z,28.00
2023-04-19T12:29:35.774Z,25.70
2023-04-19T12:32:37.610Z,28.80
2023-04-19T12:35:40.448Z,27.50
2023-04-19T12:38:42.684Z,22.10
2023-04-19T12:44:46.159Z,20.20
2023-04-19T12:47:48.496Z,22.60
2023-04-19T12:50:50.341Z,24.30
2023-04-19T12:53:52.031Z,29.70
2023-04-19T12:56:53.758Z,23.90
2023-04-19T12:59:55.737Z,14.40
2023-04-19T13:02:57.704Z,17.50
2023-04-19T13:05:59.573Z,20.00
2023-04-19T13:09:01.693Z,17.40
2023-04-19T13:12:05.067Z,18.00
2023-04-19T13:15:07.617Z,17.10
2023-04-19T13:18:09.385Z,19.50
2023-04-19T13:21:11.219Z,17.50
2023-04-19T13:24:12.919Z,19.50
2023-04-19T13:27:15.721Z,16.70
2023-04-19T13:30:17.420Z,20.20
2023-04-19T13:33:19.347Z,13.10
2023-04-19T13:36:21.175Z,18.50
2023-04-19T13:39:23.202Z,19.20
2023-04-19T13:42:25.138Z,17.90
2023-04-19T13:45:26.818Z,19.10
2023-04-19T13:48:28.494Z,21.00
2023-04-19T13:51:42.430Z,19.00
2023-04-19T13:54:49.094Z,19.80
2023-04-19T14:00:53.415Z,18.20
2023-04-19T14:03:55.430Z,19.80
2023-04-19T14:06:57.259Z,20.70
2023-04-19T14:09:59.965Z,19.60
2023-04-19T14:13:02.588Z,17.40
2023-04-19T14:16:04.539Z,17.00
2023-04-19T14:19:06.507Z,20.30
2023-04-19T14:22:08.209Z,22.70
2023-04-19T14:25:12.035Z,21.20
2023-04-19T14:28:13.786Z,21.30
2023-04-19T14:31:15.597Z,20.80
2023-04-19T14:34:17.253Z,15.70
2023-04-19T14:37:19.061Z,19.30
2023-04-19T14:40:20.813Z,17.80
2023-04-19T14:43:22.564Z,21.40
2023-04-19T14:46:24.339Z,22.20
2023-04-19T14:49:26.191Z,28.50
2023-04-19T14:52:29.572Z,33.00
2023-04-19T14:55:31.291Z,25.80
2023-04-19T14:58:33.026Z,34.60
2023-04-19T15:01:34.729Z,33.20
2023-04-19T15:04:40.624Z,24.00
2023-04-19T15:07:43.034Z,27.30
2023-04-19T15:10:44.643Z,42.60
2023-04-19T15:13:46.275Z,28.60
2023-04-19T15:16:47.836Z,40.40
2023-04-19T15:19:49.400Z,50.50
2023-04-19T15:22:51.013Z,44.30
2023-04-19T15:25:52.615Z,56.60
2023-04-19T15:28:55.300Z,36.20
2023-04-19T15:31:57.297Z,42.80
2023-04-19T15:34:59.684Z,28.10
2023-04-19T15:38:01.400Z,28.10
2023-04-19T15:41:03.287Z,32.70
2023-04-19T15:44:07.897Z,24.10
2023-04-19T15:47:09.821Z,25.00
2023-04-19T15:50:11.709Z,36.10
2023-04-19T15:53:13.514Z,40.80
2023-04-19T15:56:16.742Z,27.80
2023-04-19T15:59:18.545Z,27.60
2023-04-19T16:02:30.821Z,32.60
2023-04-19T16:05:40.046Z,33.20
2023-04-19T16:08:42.724Z,31.60
2023-04-19T16:11:44.674Z,27.70
2023-04-19T16:14:46.335Z,35.20
2023-04-19T16:17:49.891Z,31.60
2023-04-19T16:20:53.579Z,27.20
2023-04-19T16:24:01.323Z,28.40
2023-04-19T16:27:03.741Z,30.50
2023-04-19T16:30:06.793Z,22.10
2023-04-19T16:33:09.446Z,25.10
2023-04-19T16:39:13.188Z,34.00
2023-04-19T16:42:15.913Z,31.10
2023-04-19T16:45:17.960Z,31.30
2023-04-19T16:48:22.346Z,28.90
2023-04-19T16:51:24.109Z,39.40
2023-04-19T16:58:21.750Z,27.70
2023-04-19T17:01:23.654Z,24.10
2023-04-19T17:04:25.807Z,22.60
2023-04-19T17:10:29.232Z,26.00
2023-04-19T17:13:30.881Z,37.30
2023-04-19T17:16:32.537Z,39.20
2023-04-19T17:19:34.489Z,42.60
2023-04-19T17:22:36.305Z,35.60
2023-04-19T17:25:37.928Z,28.00
2023-04-19T17:28:41.083Z,34.40
2023-04-19T17:31:42.865Z,44.60
2023-04-19T17:34:44.537Z,57.50
2023-04-19T17:37:46.215Z,45.80
2023-04-19T17:40:48.002Z,47.40
2023-04-19T17:43:49.618Z,44.90
2023-04-19T17:46:51.325Z,44.60
2023-04-19T17:49:53.024Z,47.20
2023-04-19T17:52:54.875Z,41.30
2023-04-19T17:55:56.573Z,50.80
2023-04-19T17:59:00.150Z,47.80
2023-04-19T18:02:02.098Z,43.80
2023-04-19T18:05:04.266Z,36.30
2023-04-19T18:08:06.252Z,40.50
2023-04-19T18:11:10.487Z,37.20
2023-04-19T18:14:12.128Z,37.50
2023-04-19T18:17:14.033Z,37.50
2023-04-19T18:20:15.989Z,45.30
2023-04-19T18:23:23.516Z,31.50
2023-04-19T18:26:25.255Z,49.40
2023-04-19T18:29:36.076Z,46.20
2023-04-19T18:32:37.784Z,49.80
2023-04-19T18:35:40.595Z,49.80
2023-04-19T18:38:42.383Z,42.20
2023-04-19T18:42:03.939Z,47.70
2023-04-19T18:45:06.827Z,39.50
2023-04-19T18:48:09.106Z,46.80
2023-04-19T18:51:11.652Z,52.70
2023-04-19T18:54:15.600Z,53.30
2023-04-19T18:57:23.481Z,49.80
2023-04-19T19:00:28.759Z,40.80
2023-04-19T19:06:37.880Z,40.90
2023-04-19T19:09:47.225Z,38.10
2023-04-19T19:12:56.567Z,38.40
2023-04-19T19:15:58.352Z,33.80
2023-04-19T19:19:00.309Z,37.50
2023-04-19T19:22:02.174Z,42.10
2023-04-19T19:25:05.287Z,39.80
2023-04-19T19:28:10.196Z,38.70
2023-04-19T19:31:12.115Z,37.90
2023-04-19T19:34:27.354Z,36.20
2023-04-19T19:37:30.597Z,39.80
2023-04-19T19:40:33.090Z,39.30
2023-04-19T19:43:35.042Z,37.10
2023-04-19T19:46:37.579Z,33.40
2023-04-19T19:52:44.177Z,35.10
2023-04-19T19:55:46.221Z,37.30
2023-04-19T19:58:51.424Z,34.80
2023-04-19T20:01:53.720Z,34.30
2023-04-19T20:04:55.667Z,40.00
2023-04-19T20:08:08.735Z,53.00
2023-04-19T20:11:11.581Z,42.30
2023-04-19T20:14:13.228Z,39.00
2023-04-19T20:17:15.181Z,52.90
2023-04-19T20:20:16.879Z,47.60
2023-04-19T20:23:19.954Z,43.50
2023-04-19T20:26:21.631Z,45.80
2023-04-19T20:29:23.368Z,30.80
2023-04-19T20:32:25.169Z,41.30
2023-04-19T20:35:27.441Z,42.10
2023-04-19T20:38:29.143Z,38.60
2023-04-19T20:41:30.740Z,35.70
2023-04-19T20:44:33.302Z,34.70
2023-04-19T20:47:36.740Z,32.40
2023-04-19T20:50:38.395Z,35.90
2023-04-19T20:53:40.313Z,34.60
2023-04-19T20:56:41.952Z,35.40
2023-04-19T20:59:44.431Z,37.00
2023-04-19T21:02:46.119Z,34.90
2023-04-19T21:05:47.820Z,35.30
2023-04-19T21:08:49.412Z,39.50
2023-04-19T21:11:51.042Z,34.70
2023-04-19T21:14:53.010Z,36.50
2023-04-19T21:17:54.669Z,36.70
2023-04-19T21:20:57.376Z,39.00
2023-04-19T21:23:59.449Z,46.80
2023-04-19T21:27:01.311Z,46.50
2023-04-19T21:30:04.969Z,40.60
2023-04-19T21:33:07.084Z,39.60
2023-04-19T21:36:09.011Z,39.20
2023-04-19T21:39:10.749Z,43.30
2023-04-19T21:42:12.475Z,40.20
2023-04-19T21:45:14.090Z,39.00
2023-04-19T21:48:15.836Z,39.40
2023-04-19T21:51:17.484Z,40.70
2023-04-19T21:54:32.728Z,35.40
2023-04-19T21:57:37.671Z,36.60
2023-04-19T22:00:39.318Z,38.40
2023-04-19T22:03:41.275Z,38.50
2023-04-19T22:06:46.092Z,46.50
2023-04-19T22:09:47.772Z,43.70
2023-04-19T22:12:57.712Z,43.90
2023-04-19T22:16:01.697Z,48.10
2023-04-19T22:19:03.350Z,40.30
2023-04-19T22:22:04.991Z,44.50
2023-04-19T22:25:07.025Z,42.60
2023-04-19T22:28:08.627Z,41.10
2023-04-19T22:31:10.364Z,48.10
2023-04-19T22:34:11.969Z,42.50
2023-04-19T22:37:13.662Z,40.70
2023-04-19T22:40:15.402Z,42.10
2023-04-19T22:43:17.065Z,45.10
2023-04-19T22:46:18.723Z,41.70
2023-04-19T22:49:21.834Z,48.00
2023-04-19T22:52:23.467Z,48.10
2023-04-19T22:55:25.209Z,49.90
2023-04-19T22:58:27.111Z,38.00
2023-04-19T23:01:28.776Z,43.50
2023-04-19T23:04:34.633Z,41.00
2023-04-19T23:07:36.460Z,46.60
2023-04-19T23:10:38.417Z,38.20
2023-04-19T23:13:40.757Z,38.70
2023-04-19T23:16:42.361Z,39.20
2023-04-19T23:19:44.113Z,40.50
2023-04-19T23:22:45.703Z,43.60
2023-04-19T23:25:47.323Z,41.00
2023-04-19T23:28:49.001Z,41.10
2023-04-19T23:31:50.851Z,43.30
2023-04-19T23:34:52.533Z,38.70
2023-04-19T23:37:54.168Z,47.80
2023-04-19T23:40:55.832Z,41.10
2023-04-19T23:43:57.487Z,47.10
2023-04-19T23:46:59.170Z,42.20
2023-04-19T23:50:00.865Z,43.20
2023-04-19T23:53:02.598Z,42.60
2023-04-19T23:56:04.481Z,47.90
2023-04-19T23:59:06.493Z,44.30
